createdAt,value
2023-03-05T00:01:42.925Z,10.53
2023-03-05T00:04:13.231Z,8.17
2023-03-05T00:06:40.141Z,9.83
2023-03-05T00:09:07.161Z,9.77
2023-03-05T00:11:34.228Z,7.63
2023-03-05T00:14:03.636Z,9.47
2023-03-05T00:16:30.930Z,11.00
2023-03-05T00:18:59.233Z,11.03
2023-03-05T00:21:27.107Z,10.50
2023-03-05T00:23:54.617Z,10.53
2023-03-05T00:26:23.865Z,9.63
2023-03-05T00:28:51.999Z,11.10
2023-03-05T00:31:20.917Z,11.43
2023-03-05T00:33:55.070Z,11.13
2023-03-05T00:36:22.246Z,10.90
2023-03-05T00:38:49.129Z,11.80
2023-03-05T00:41:15.945Z,8.57
2023-03-05T00:43:42.838Z,8.27
2023-03-05T00:46:09.655Z,11.67
2023-03-05T00:48:36.601Z,11.77
2023-03-05T00:51:03.716Z,12.67
2023-03-05T00:53:30.539Z,13.00
2023-03-05T00:55:57.333Z,13.17
2023-03-05T00:58:24.134Z,10.23
2023-03-05T01:00:50.916Z,9.70
2023-03-05T01:03:20.464Z,9.70
2023-03-05T01:05:47.151Z,11.40
2023-03-05T01:08:14.118Z,10.77
2023-03-05T01:10:40.866Z,12.67
2023-03-05T01:13:07.670Z,16.10
2023-03-05T01:15:34.389Z,16.10
2023-03-05T01:18:01.452Z,17.03
2023-03-05T01:20:28.308Z,14.93
2023-03-05T01:22:55.065Z,16.97
2023-03-05T01:25:21.903Z,16.17
2023-03-05T01:27:48.616Z,15.70
2023-03-05T01:30:15.978Z,16.37
2023-03-05T01:32:43.265Z,17.87
2023-03-05T01:35:17.002Z,14.77
2023-03-05T01:37:43.720Z,15.30
2023-03-05T01:40:11.937Z,14.83
2023-03-05T01:42:38.776Z,14.80
2023-03-05T01:45:12.637Z,14.20
2023-03-05T01:47:40.004Z,15.63
2023-03-05T01:50:11.102Z,13.97
2023-03-05T01:52:39.889Z,17.30
2023-03-05T01:55:11.919Z,15.20
2023-03-05T01:57:45.189Z,16.43
2023-03-05T02:00:18.301Z,14.83
2023-03-05T02:02:46.639Z,15.90
2023-03-05T02:05:17.243Z,15.10
2023-03-05T02:07:45.310Z,14.90
2023-03-05T02:10:19.819Z,15.63
2023-03-05T02:12:48.432Z,16.27
2023-03-05T02:15:15.392Z,16.00
2023-03-05T02:17:42.203Z,15.77
2023-03-05T02:20:18.172Z,17.20
2023-03-05T02:22:44.925Z,14.50
2023-03-05T02:25:23.701Z,16.40
2023-03-05T02:28:04.060Z,16.90
2023-03-05T02:30:31.494Z,14.17
2023-03-05T02:32:58.835Z,15.27
2023-03-05T02:35:25.807Z,15.47
2023-03-05T02:37:52.562Z,13.13
2023-03-05T02:40:19.428Z,16.33
2023-03-05T02:42:46.843Z,14.60
2023-03-05T02:45:13.815Z,15.50
2023-03-05T02:47:40.559Z,15.87
2023-03-05T02:50:08.565Z,13.70
2023-03-05T02:52:35.303Z,16.30
2023-03-05T02:55:02.142Z,15.87
2023-03-05T02:57:28.845Z,15.03
2023-03-05T02:59:55.595Z,13.00
2023-03-05T03:02:22.733Z,15.40
2023-03-05T03:04:49.465Z,15.93
2023-03-05T03:07:16.556Z,14.07
2023-03-05T03:09:43.498Z,15.10
2023-03-05T03:12:11.262Z,16.87
2023-03-05T03:14:41.237Z,15.53
2023-03-05T03:17:18.443Z,15.80
2023-03-05T03:19:46.207Z,14.77
2023-03-05T03:22:14.566Z,13.60
2023-03-05T03:24:42.341Z,16.30
2023-03-05T03:27:09.670Z,16.40
2023-03-05T03:29:36.730Z,16.80
2023-03-05T03:32:04.839Z,15.90
2023-03-05T03:34:31.867Z,15.30
2023-03-05T03:36:58.540Z,14.83
2023-03-05T03:39:25.654Z,17.60
2023-03-05T03:41:53.618Z,16.17
2023-03-05T03:44:21.530Z,16.10
2023-03-05T03:46:50.037Z,16.43
2023-03-05T03:49:21.719Z,15.73
2023-03-05T03:51:49.339Z,15.67
2023-03-05T03:54:17.535Z,15.30
2023-03-05T03:56:44.496Z,14.83
2023-03-05T03:59:12.001Z,14.47
2023-03-05T04:01:38.791Z,16.40
2023-03-05T04:04:06.403Z,14.20
2023-03-05T04:06:33.783Z,16.60
2023-03-05T04:09:00.643Z,12.90
2023-03-05T04:11:27.405Z,13.63
2023-03-05T04:13:54.118Z,14.40
2023-03-05T04:16:20.885Z,14.97
2023-03-05T04:18:47.721Z,14.87
2023-03-05T04:21:14.557Z,14.10
2023-03-05T04:23:41.718Z,15.30
2023-03-05T04:26:08.385Z,13.83
2023-03-05T04:28:35.464Z,14.30
2023-03-05T04:31:02.919Z,14.10
2023-03-05T04:33:29.728Z,13.97
2023-03-05T04:35:56.785Z,14.60
2023-03-05T04:38:23.552Z,12.63
2023-03-05T04:40:50.341Z,12.97
2023-03-05T04:43:17.027Z,12.50
2023-03-05T04:45:44.151Z,15.07
2023-03-05T04:48:11.613Z,12.20
2023-03-05T04:50:38.693Z,13.33
2023-03-05T04:53:05.415Z,13.20
2023-03-05T04:55:32.120Z,12.50
2023-03-05T04:57:59.321Z,12.10
2023-03-05T05:00:26.123Z,11.57
2023-03-05T05:02:53.500Z,12.63
2023-03-05T05:05:25.870Z,9.97
2023-03-05T05:07:56.844Z,10.07
2023-03-05T05:10:24.973Z,10.80
2023-03-05T05:12:51.996Z,11.80
2023-03-05T05:15:18.867Z,11.03
2023-03-05T05:17:45.884Z,10.83
2023-03-05T05:20:14.394Z,12.77
2023-03-05T05:22:41.222Z,11.73
2023-03-05T05:25:08.640Z,12.13
2023-03-05T05:27:35.244Z,10.80
2023-03-05T05:30:02.143Z,11.00
2023-03-05T05:32:29.229Z,13.63
2023-03-05T05:34:59.055Z,10.80
2023-03-05T05:37:26.650Z,10.87
2023-03-05T05:39:53.608Z,11.60
2023-03-05T05:42:22.206Z,11.60
2023-03-05T05:44:49.465Z,13.23
2023-03-05T05:47:17.350Z,13.13
2023-03-05T05:49:43.976Z,10.50
2023-03-05T05:52:10.839Z,13.30
2023-03-05T05:54:37.422Z,13.07
2023-03-05T05:57:04.201Z,11.67
2023-03-05T05:59:30.932Z,13.30
2023-03-05T06:01:57.634Z,12.20
2023-03-05T06:04:24.202Z,12.77
2023-03-05T06:06:51.110Z,13.00
2023-03-05T06:09:17.667Z,13.57
2023-03-05T06:11:44.305Z,13.10
2023-03-05T06:14:12.657Z,14.17
2023-03-05T06:16:39.927Z,12.83
2023-03-05T06:19:06.683Z,11.53
2023-03-05T06:21:33.553Z,11.80
2023-03-05T06:24:00.415Z,12.13
2023-03-05T06:26:27.093Z,13.33
2023-03-05T06:28:54.338Z,10.97
2023-03-05T06:31:23.133Z,11.03
2023-03-05T06:33:50.027Z,13.03
2023-03-05T06:36:18.763Z,12.20
2023-03-05T06:38:45.403Z,11.73
2023-03-05T06:41:14.602Z,12.20
2023-03-05T06:43:43.202Z,11.60
2023-03-05T06:46:17.501Z,11.77
2023-03-05T06:48:44.794Z,10.83
2023-03-05T06:51:20.324Z,12.47
2023-03-05T06:53:49.371Z,10.63
2023-03-05T06:56:17.075Z,11.30
2023-03-05T06:58:45.896Z,12.03
2023-03-05T07:01:13.479Z,13.33
2023-03-05T07:03:40.714Z,12.00
2023-03-05T07:06:10.647Z,10.63
2023-03-05T07:08:38.085Z,12.77
2023-03-05T07:11:09.542Z,9.90
2023-03-05T07:13:36.335Z,11.30
2023-03-05T07:16:08.053Z,13.33
2023-03-05T07:18:35.393Z,9.90
2023-03-05T07:21:06.641Z,12.70
2023-03-05T07:23:34.620Z,10.50
2023-03-05T07:26:05.828Z,11.63
2023-03-05T07:28:33.649Z,13.03
2023-03-05T07:31:21.003Z,11.60
2023-03-05T07:33:50.997Z,11.03
2023-03-05T07:36:17.972Z,12.13
2023-03-05T07:38:44.873Z,10.70
2023-03-05T07:41:13.925Z,11.10
2023-03-05T07:43:40.878Z,11.80
2023-03-05T07:46:09.232Z,10.97
2023-03-05T07:48:36.155Z,12.60
2023-03-05T07:51:08.219Z,10.77
2023-03-05T07:53:35.007Z,9.17
2023-03-05T07:56:01.957Z,11.70
2023-03-05T07:58:29.028Z,10.33
2023-03-05T08:00:55.719Z,10.80
2023-03-05T08:03:22.548Z,10.50
2023-03-05T08:05:49.365Z,8.47
2023-03-05T08:08:16.618Z,10.70
2023-03-05T08:10:43.594Z,8.30
2023-03-05T08:13:10.505Z,9.10
2023-03-05T08:15:38.495Z,9.57
2023-03-05T08:18:05.553Z,9.63
2023-03-05T08:20:35.692Z,7.90
2023-03-05T08:23:03.424Z,8.83
2023-03-05T08:25:30.238Z,8.67
2023-03-05T08:27:57.094Z,9.03
2023-03-05T08:30:27.412Z,9.13
2023-03-05T08:32:54.839Z,10.57
2023-03-05T08:35:21.907Z,10.57
2023-03-05T08:37:48.822Z,8.57
2023-03-05T08:40:18.222Z,9.70
2023-03-05T08:42:45.183Z,9.77
2023-03-05T08:45:12.246Z,9.50
2023-03-05T08:47:39.237Z,8.07
2023-03-05T08:50:06.383Z,11.03
2023-03-05T08:52:33.225Z,7.20
2023-03-05T08:54:59.926Z,11.23
2023-03-05T08:57:26.589Z,9.20
2023-03-05T08:59:53.314Z,9.10
2023-03-05T09:02:19.923Z,8.50
2023-03-05T09:04:46.854Z,9.60
2023-03-05T09:07:13.501Z,10.70
2023-03-05T09:09:40.542Z,9.50
2023-03-05T09:12:07.451Z,9.40
2023-03-05T09:14:34.096Z,8.83
2023-03-05T09:17:02.307Z,9.50
2023-03-05T09:19:29.024Z,9.23
2023-03-05T09:21:57.110Z,9.80
2023-03-05T09:24:24.007Z,9.87
2023-03-05T09:26:51.024Z,10.47
2023-03-05T09:29:17.635Z,9.23
2023-03-05T09:31:44.412Z,8.63
2023-03-05T09:34:12.265Z,10.33
2023-03-05T09:36:39.036Z,10.90
2023-03-05T09:39:07.250Z,10.93
2023-03-05T09:41:52.062Z,10.67
2023-03-05T09:44:41.763Z,11.80
2023-03-05T09:47:38.345Z,11.40
2023-03-05T09:50:39.743Z,10.00
2023-03-05T09:53:23.297Z,12.10
2023-03-05T09:55:57.104Z,9.50
2023-03-05T09:58:39.581Z,11.37
2023-03-05T10:01:14.139Z,10.53
2023-03-05T10:03:57.692Z,11.27
2023-03-05T10:06:30.242Z,10.50
2023-03-05T10:08:58.233Z,12.17
2023-03-05T10:11:35.806Z,11.00
2023-03-05T10:14:03.419Z,9.47
2023-03-05T10:16:30.089Z,10.63
2023-03-05T10:19:21.919Z,10.00
2023-03-05T10:22:14.905Z,9.90
2023-03-05T10:24:45.365Z,12.50
2023-03-05T10:27:21.163Z,9.83
2023-03-05T10:30:29.595Z,10.70
2023-03-05T10:32:56.255Z,10.97
2023-03-05T10:36:06.169Z,10.10
2023-03-05T10:38:48.262Z,12.60
2023-03-05T10:41:31.116Z,10.80
2023-03-05T10:44:09.046Z,9.93
2023-03-05T10:46:37.325Z,10.60
2023-03-05T10:49:16.327Z,9.70
2023-03-05T10:52:04.921Z,9.60
2023-03-05T10:54:33.694Z,9.23
2023-03-05T10:57:12.326Z,10.23
2023-03-05T11:00:07.995Z,9.23
2023-03-05T11:02:54.191Z,9.30
2023-03-05T11:05:39.226Z,9.63
2023-03-05T11:08:36.762Z,8.30
2023-03-05T11:11:18.480Z,10.77
2023-03-05T11:13:55.642Z,9.70
2023-03-05T11:16:30.566Z,9.30
2023-03-05T11:19:30.075Z,10.17
2023-03-05T11:22:17.909Z,10.97
2023-03-05T11:24:47.919Z,11.13
2023-03-05T11:27:32.771Z,10.20
2023-03-05T11:29:59.720Z,10.90
2023-03-05T11:32:28.437Z,9.03
2023-03-05T11:34:56.456Z,10.03
2023-03-05T11:37:29.620Z,9.30
2023-03-05T11:40:15.240Z,10.10
2023-03-05T11:42:42.442Z,10.50
2023-03-05T11:45:16.741Z,11.40
2023-03-05T11:47:47.751Z,9.00
2023-03-05T11:50:32.844Z,8.83
2023-03-05T11:53:09.737Z,10.90
2023-03-05T11:55:48.116Z,9.10
2023-03-05T11:58:39.995Z,9.53
2023-03-05T12:01:20.895Z,8.90
2023-03-05T12:03:48.168Z,9.00
2023-03-05T12:06:28.274Z,9.43
2023-03-05T12:08:57.668Z,9.70
2023-03-05T12:11:28.306Z,10.27
2023-03-05T12:13:59.695Z,9.93
2023-03-05T12:16:32.422Z,10.67
2023-03-05T12:19:28.591Z,9.00
2023-03-05T12:21:55.401Z,10.70
2023-03-05T12:24:27.905Z,8.30
2023-03-05T12:27:04.281Z,9.97
2023-03-05T12:29:47.828Z,9.03
2023-03-05T12:32:25.597Z,9.30
2023-03-05T12:34:59.707Z,9.40
2023-03-05T12:37:26.379Z,8.43
2023-03-05T12:40:04.486Z,9.80
2023-03-05T12:42:31.553Z,9.33
2023-03-05T12:45:14.568Z,10.07
2023-03-05T12:47:45.808Z,10.83
2023-03-05T12:50:27.968Z,9.77
2023-03-05T12:53:02.161Z,9.07
2023-03-05T12:55:33.533Z,10.70
2023-03-05T12:58:06.910Z,9.43
2023-03-05T13:00:51.917Z,11.20
2023-03-05T13:03:22.740Z,9.93
2023-03-05T13:06:00.687Z,10.60
2023-03-05T13:08:32.775Z,8.87
2023-03-05T13:11:01.953Z,9.93
2023-03-05T13:13:36.591Z,9.63
2023-03-05T13:16:04.340Z,9.73
2023-03-05T13:18:33.125Z,10.50
2023-03-05T13:21:14.510Z,10.30
2023-03-05T13:23:58.286Z,11.40
2023-03-05T13:26:38.822Z,10.60
2023-03-05T13:29:30.836Z,8.50
2023-03-05T13:32:03.403Z,8.70
2023-03-05T13:34:46.203Z,10.10
2023-03-05T13:37:19.247Z,9.40
2023-03-05T13:40:01.099Z,9.40
2023-03-05T13:42:32.404Z,9.70
2023-03-05T13:45:01.863Z,9.63
2023-03-05T13:47:32.047Z,8.47
2023-03-05T13:50:05.772Z,10.10
2023-03-05T13:52:36.927Z,9.80
2023-03-05T13:55:11.338Z,8.63
2023-03-05T13:57:46.305Z,11.00
2023-03-05T14:00:35.363Z,9.20
2023-03-05T14:03:21.936Z,9.30
2023-03-05T14:05:50.197Z,9.07
2023-03-05T14:08:26.684Z,10.00
2023-03-05T14:10:54.557Z,9.20
2023-03-05T14:13:23.968Z,10.10
2023-03-05T14:16:28.144Z,9.33
2023-03-05T14:18:58.580Z,10.93
2023-03-05T14:21:25.803Z,8.90
2023-03-05T14:23:55.039Z,9.17
2023-03-05T14:26:35.225Z,8.83
2023-03-05T14:29:07.689Z,10.90
2023-03-05T14:31:56.540Z,8.73
2023-03-05T14:34:35.937Z,8.93
2023-03-05T14:37:05.117Z,8.17
2023-03-05T14:39:46.498Z,9.77
2023-03-05T14:42:38.710Z,9.70
2023-03-05T14:45:18.446Z,8.00
2023-03-05T14:47:45.867Z,8.93
2023-03-05T14:50:17.770Z,9.40
2023-03-05T14:52:45.391Z,8.47
2023-03-05T14:55:20.765Z,9.07
2023-03-05T14:57:48.604Z,9.63
2023-03-05T15:00:21.122Z,9.43
2023-03-05T15:02:48.412Z,9.17
2023-03-05T15:05:16.446Z,10.13
2023-03-05T15:07:44.233Z,9.57
2023-03-05T15:10:23.432Z,12.30
2023-03-05T15:12:53.256Z,8.60
2023-03-05T15:15:21.438Z,8.53
2023-03-05T15:17:51.828Z,7.40
2023-03-05T15:20:21.935Z,9.97
2023-03-05T15:22:48.693Z,8.50
2023-03-05T15:25:16.005Z,9.47
2023-03-05T15:27:42.838Z,9.27
2023-03-05T15:30:33.767Z,8.43
2023-03-05T15:33:02.868Z,8.40
2023-03-05T15:35:30.179Z,7.60
2023-03-05T15:37:58.123Z,9.17
2023-03-05T15:40:25.388Z,9.13
2023-03-05T15:42:52.303Z,9.60
2023-03-05T15:45:19.302Z,8.20
2023-03-05T15:47:48.976Z,7.33
2023-03-05T15:50:15.798Z,8.37
2023-03-05T15:52:42.520Z,8.50
2023-03-05T15:55:09.749Z,8.60
2023-03-05T15:57:37.818Z,8.50
2023-03-05T16:00:08.273Z,7.70
2023-03-05T16:02:35.026Z,8.87
2023-03-05T16:05:01.783Z,9.03
2023-03-05T16:07:29.571Z,8.37
2023-03-05T16:09:57.409Z,7.83
2023-03-05T16:12:27.679Z,8.43
2023-03-05T16:14:54.457Z,9.40
2023-03-05T16:17:23.343Z,7.67
2023-03-05T16:19:53.311Z,9.17
2023-03-05T16:22:20.046Z,7.90
2023-03-05T16:24:46.837Z,8.43
2023-03-05T16:27:13.571Z,8.63
2023-03-05T16:29:40.675Z,7.63
2023-03-05T16:32:07.602Z,7.03
2023-03-05T16:34:35.001Z,8.23
2023-03-05T16:37:04.667Z,7.20
2023-03-05T16:39:31.634Z,7.93
2023-03-05T16:41:58.624Z,8.30
2023-03-05T16:44:25.426Z,7.90
2023-03-05T16:46:53.997Z,9.70
2023-03-05T16:49:21.123Z,7.10
2023-03-05T16:51:48.325Z,7.33
2023-03-05T16:54:15.226Z,8.27
2023-03-05T16:56:41.993Z,7.07
2023-03-05T16:59:08.777Z,8.03
2023-03-05T17:01:35.656Z,6.67
2023-03-05T17:04:02.470Z,7.40
2023-03-05T17:06:31.102Z,7.63
2023-03-05T17:08:58.014Z,7.60
2023-03-05T17:11:25.977Z,5.97
2023-03-05T17:13:52.857Z,7.40
2023-03-05T17:16:21.137Z,6.10
2023-03-05T17:18:48.754Z,6.90
2023-03-05T17:21:15.972Z,8.50
2023-03-05T17:23:43.151Z,9.53
2023-03-05T17:26:12.246Z,7.50
2023-03-05T17:28:39.591Z,8.10
2023-03-05T17:31:06.413Z,8.23
2023-03-05T17:33:34.807Z,8.20
2023-03-05T17:36:01.919Z,8.40
2023-03-05T17:38:28.684Z,8.70
2023-03-05T17:40:55.505Z,8.50
2023-03-05T17:43:22.698Z,11.40
2023-03-05T17:45:49.622Z,9.50
2023-03-05T17:48:16.469Z,8.60
2023-03-05T17:50:45.126Z,7.60
2023-03-05T17:53:12.619Z,8.53
2023-03-05T17:55:40.260Z,8.03
2023-03-05T17:58:07.584Z,7.50
2023-03-05T18:00:35.311Z,6.57
2023-03-05T18:03:02.706Z,9.53
2023-03-05T18:05:29.557Z,6.70
2023-03-05T18:07:56.508Z,9.70
2023-03-05T18:10:26.009Z,5.90
2023-03-05T18:12:53.233Z,5.30
2023-03-05T18:15:21.720Z,7.07
2023-03-05T18:17:48.469Z,5.33
2023-03-05T18:20:30.283Z,7.07
2023-03-05T18:22:57.743Z,9.40
2023-03-05T18:25:31.004Z,6.93
2023-03-05T18:28:12.263Z,4.90
2023-03-05T18:30:40.763Z,5.00
2023-03-05T18:33:08.354Z,5.33
2023-03-05T18:35:35.151Z,4.90
2023-03-05T18:38:01.919Z,4.90
2023-03-05T18:40:32.612Z,4.53
2023-03-05T18:43:00.920Z,6.23
2023-03-05T18:45:28.016Z,6.10
2023-03-05T18:47:56.679Z,5.57
2023-03-05T18:50:25.888Z,5.57
2023-03-05T18:52:52.928Z,4.80
2023-03-05T18:55:28.400Z,5.43
2023-03-05T18:57:55.510Z,5.20
2023-03-05T19:00:32.200Z,5.73
2023-03-05T19:02:59.320Z,4.33
2023-03-05T19:05:26.727Z,5.43
2023-03-05T19:07:54.269Z,4.90
2023-03-05T19:10:22.706Z,5.50
2023-03-05T19:12:55.628Z,5.20
2023-03-05T19:15:22.844Z,5.30
2023-03-05T19:17:50.356Z,5.13
2023-03-05T19:20:18.844Z,6.80
2023-03-05T19:22:45.694Z,5.27
2023-03-05T19:25:12.791Z,5.20
2023-03-05T19:27:40.396Z,4.87
2023-03-05T19:30:08.302Z,6.27
2023-03-05T19:32:35.456Z,5.40
2023-03-05T19:35:02.851Z,4.93
2023-03-05T19:37:31.696Z,5.40
2023-03-05T19:39:58.438Z,6.43
2023-03-05T19:42:25.165Z,5.60
2023-03-05T19:44:51.829Z,7.43
2023-03-05T19:47:18.441Z,5.90
2023-03-05T19:49:45.405Z,7.20
2023-03-05T19:52:14.025Z,6.03
2023-03-05T19:54:40.762Z,5.90
2023-03-05T19:57:07.806Z,5.30
2023-03-05T19:59:34.695Z,5.40
2023-03-05T20:02:01.423Z,5.27
2023-03-05T20:04:28.234Z,5.87
2023-03-05T20:06:55.045Z,6.20
2023-03-05T20:09:22.039Z,6.23
2023-03-05T20:11:48.700Z,5.40
2023-03-05T20:14:15.355Z,5.10
2023-03-05T20:16:43.476Z,5.73
2023-03-05T20:19:16.340Z,5.13
2023-03-05T20:21:44.235Z,4.10
2023-03-05T20:24:17.128Z,5.90
2023-03-05T20:26:45.846Z,6.80
2023-03-05T20:29:15.493Z,5.67
2023-03-05T20:31:44.288Z,5.93
2023-03-05T20:34:13.607Z,4.37
2023-03-05T20:36:40.565Z,5.23
2023-03-05T20:39:08.035Z,6.77
2023-03-05T20:41:36.899Z,7.73
2023-03-05T20:44:03.961Z,7.97
2023-03-05T20:46:33.349Z,7.70
2023-03-05T20:49:01.814Z,7.97
2023-03-05T20:51:32.163Z,6.93
2023-03-05T20:54:03.657Z,6.33
2023-03-05T20:56:32.610Z,5.97
2023-03-05T20:59:02.874Z,5.50
2023-03-05T21:01:29.714Z,5.30
2023-03-05T21:03:59.937Z,4.77
2023-03-05T21:06:28.048Z,4.97
2023-03-05T21:08:54.995Z,6.03
2023-03-05T21:11:22.018Z,5.20
2023-03-05T21:13:48.769Z,5.93
2023-03-05T21:16:18.252Z,5.53
2023-03-05T21:18:45.204Z,5.23
2023-03-05T21:21:11.966Z,6.13
2023-03-05T21:23:38.609Z,5.67
2023-03-05T21:26:05.543Z,6.67
2023-03-05T21:28:33.238Z,8.30
2023-03-05T21:31:06.569Z,7.87
2023-03-05T21:33:33.206Z,7.70
2023-03-05T21:36:00.046Z,7.07
2023-03-05T21:38:30.467Z,6.43
2023-03-05T21:40:58.673Z,7.50
2023-03-05T21:43:26.526Z,11.87
2023-03-05T21:45:54.748Z,10.47
2023-03-05T21:48:22.234Z,10.67
2023-03-05T21:50:49.295Z,8.67
2023-03-05T21:53:16.825Z,9.40
2023-03-05T21:55:59.062Z,7.80
2023-03-05T21:58:25.725Z,9.10
2023-03-05T22:00:52.498Z,9.13
2023-03-05T22:03:19.119Z,10.57
2023-03-05T22:05:45.850Z,8.43
2023-03-05T22:08:12.497Z,8.37
2023-03-05T22:10:41.259Z,7.63
2023-03-05T22:13:12.603Z,8.20
2023-03-05T22:15:46.515Z,7.60
2023-03-05T22:18:14.506Z,7.33
2023-03-05T22:20:41.691Z,6.63
2023-03-05T22:23:08.736Z,5.47
2023-03-05T22:25:35.829Z,5.70
2023-03-05T22:28:04.164Z,6.17
2023-03-05T22:30:32.176Z,5.27
2023-03-05T22:33:01.068Z,6.67
2023-03-05T22:35:27.953Z,4.87
2023-03-05T22:37:54.565Z,5.97
2023-03-05T22:40:22.133Z,5.97
2023-03-05T22:42:49.182Z,5.67
2023-03-05T22:45:17.724Z,5.40
2023-03-05T22:47:49.401Z,4.90
2023-03-05T22:50:19.783Z,4.20
2023-03-05T22:52:46.674Z,4.30
2023-03-05T22:55:15.097Z,4.40
2023-03-05T22:57:42.498Z,4.60
2023-03-05T23:00:14.532Z,5.13
2023-03-05T23:02:42.705Z,5.33
2023-03-05T23:05:10.696Z,5.37
2023-03-05T23:07:40.250Z,5.17
2023-03-05T23:10:12.891Z,4.90
2023-03-05T23:12:44.189Z,4.90
2023-03-05T23:15:13.614Z,4.90
2023-03-05T23:17:40.564Z,4.77
2023-03-05T23:20:10.563Z,4.50
2023-03-05T23:22:39.051Z,6.10
2023-03-05T23:25:12.207Z,5.67
2023-03-05T23:27:38.852Z,4.70
2023-03-05T23:30:17.689Z,5.57
2023-03-05T23:32:54.903Z,4.90
2023-03-05T23:35:30.565Z,3.90
2023-03-05T23:37:58.584Z,5.93
2023-03-05T23:40:27.775Z,7.20
2023-03-05T23:42:54.837Z,6.50
2023-03-05T23:45:22.575Z,6.93
2023-03-05T23:47:49.574Z,5.80
2023-03-05T23:50:23.767Z,4.77
2023-03-05T23:52:50.929Z,5.93
2023-03-05T23:55:42.392Z,4.90
2023-03-05T23:58:09.127Z,6.33
